createdAt,value
2017-10-23T00:02:23.694Z,10.07
2017-10-23T00:04:51.149Z,13.43
2017-10-23T00:07:19.398Z,12.40
2017-10-23T00:09:46.886Z,15.03
2017-10-23T00:12:15.107Z,12.37
2017-10-23T00:14:42.566Z,16.17
2017-10-23T00:17:10.034Z,10.07
2017-10-23T00:19:37.500Z,13.57
2017-10-23T00:22:04.973Z,12.57
2017-10-23T00:24:32.441Z,14.40
2017-10-23T00:26:59.891Z,18.50
2017-10-23T00:29:27.372Z,13.10
2017-10-23T00:31:55.608Z,15.73
2017-10-23T00:34:23.073Z,19.50
2017-10-23T00:36:51.296Z,19.50
2017-10-23T00:39:18.750Z,13.53
2017-10-23T00:41:47.002Z,13.60
2017-10-23T00:44:14.454Z,11.23
2017-10-23T00:46:41.955Z,17.30
2017-10-23T00:49:09.404Z,19.47
2017-10-23T00:51:37.634Z,16.90
2017-10-23T00:54:05.105Z,13.57
2017-10-23T00:56:33.330Z,17.37
2017-10-23T00:59:00.865Z,16.27
2017-10-23T01:01:28.374Z,16.47
2017-10-23T01:03:55.834Z,20.40
2017-10-23T01:06:23.598Z,15.57
2017-10-23T01:08:51.058Z,19.20
2017-10-23T01:11:18.519Z,16.53
2017-10-23T01:13:45.974Z,14.47
2017-10-23T01:16:14.950Z,15.67
2017-10-23T01:18:42.406Z,15.30
2017-10-23T01:21:09.870Z,14.20
2017-10-23T01:23:37.318Z,12.13
2017-10-23T01:26:04.788Z,12.83
2017-10-23T01:28:32.242Z,15.77
2017-10-23T01:30:59.715Z,14.60
2017-10-23T01:33:27.201Z,13.27
2017-10-23T01:35:54.666Z,13.77
2017-10-23T01:38:22.118Z,20.33
2017-10-23T01:40:49.583Z,18.50
2017-10-23T01:43:17.842Z,11.67
2017-10-23T01:45:45.317Z,14.13
2017-10-23T01:48:12.765Z,17.67
2017-10-23T01:50:40.221Z,12.20
2017-10-23T01:53:07.705Z,16.27
2017-10-23T01:55:35.150Z,11.50
2017-10-23T01:58:02.616Z,10.37
2017-10-23T02:00:30.069Z,10.07
2017-10-23T02:02:57.543Z,10.30
2017-10-23T02:05:25.011Z,10.67
2017-10-23T02:07:52.509Z,11.10
2017-10-23T02:10:20.753Z,12.60
2017-10-23T02:12:48.218Z,9.93
2017-10-23T02:15:15.707Z,11.07
2017-10-23T02:17:43.151Z,14.10
2017-10-23T02:20:10.607Z,14.83
2017-10-23T02:22:38.191Z,14.20
2017-10-23T02:25:06.436Z,13.20
2017-10-23T02:27:33.925Z,11.10
2017-10-23T02:30:02.165Z,14.73
2017-10-23T02:32:29.614Z,14.43
2017-10-23T02:34:57.082Z,13.53
2017-10-23T02:37:24.541Z,20.37
2017-10-23T02:39:52.010Z,16.47
2017-10-23T02:42:19.466Z,20.60
2017-10-23T02:44:46.927Z,16.83
2017-10-23T02:47:15.150Z,17.80
2017-10-23T02:49:42.631Z,14.43
2017-10-23T02:52:10.083Z,15.67
2017-10-23T02:54:37.542Z,13.57
2017-10-23T02:57:05.002Z,20.57
2017-10-23T02:59:32.459Z,18.37
2017-10-23T03:01:59.915Z,16.70
2017-10-23T03:04:27.407Z,18.27
2017-10-23T03:06:55.626Z,17.53
2017-10-23T03:09:23.086Z,19.73
2017-10-23T03:11:50.550Z,24.50
2017-10-23T03:14:17.999Z,17.40
2017-10-23T03:16:45.459Z,18.43
2017-10-23T03:19:12.939Z,21.30
2017-10-23T03:21:40.419Z,15.77
2017-10-23T03:24:07.874Z,16.30
2017-10-23T03:26:35.331Z,23.60
2017-10-23T03:29:04.301Z,19.57
2017-10-23T03:31:31.759Z,15.07
2017-10-23T03:33:59.238Z,17.50
2017-10-23T03:36:26.693Z,11.73
2017-10-23T03:38:54.155Z,15.13
2017-10-23T03:41:21.614Z,20.60
2017-10-23T03:43:49.059Z,22.97
2017-10-23T03:46:16.518Z,20.70
2017-10-23T03:48:43.975Z,21.13
2017-10-23T03:51:11.470Z,20.97
2017-10-23T03:53:39.687Z,19.80
2017-10-23T03:56:07.159Z,25.40
2017-10-23T03:58:34.625Z,28.53
2017-10-23T04:01:02.093Z,24.23
2017-10-23T04:03:29.561Z,23.97
2017-10-23T04:05:57.803Z,19.03
2017-10-23T04:08:25.295Z,17.70
2017-10-23T04:10:53.522Z,19.50
2017-10-23T04:13:20.996Z,16.60
2017-10-23T04:15:48.471Z,24.57
2017-10-23T04:18:15.927Z,25.97
2017-10-23T04:20:43.379Z,28.33
2017-10-23T04:23:10.864Z,23.50
2017-10-23T04:25:39.099Z,24.70
2017-10-23T04:28:06.585Z,23.53
2017-10-23T04:30:34.034Z,26.90
2017-10-23T04:33:01.494Z,24.90
2017-10-23T04:35:28.963Z,19.43
2017-10-23T04:37:57.205Z,25.63
2017-10-23T04:40:24.658Z,24.87
2017-10-23T04:42:52.138Z,23.13
2017-10-23T04:45:19.603Z,20.47
2017-10-23T04:47:47.066Z,20.50
2017-10-23T04:50:15.282Z,25.13
2017-10-23T04:52:42.758Z,23.63
2017-10-23T04:55:10.222Z,16.03
2017-10-23T04:57:37.773Z,25.30
2017-10-23T05:00:05.245Z,21.00
2017-10-23T05:02:32.735Z,21.10
2017-10-23T05:05:00.195Z,18.67
2017-10-23T05:07:27.638Z,20.83
2017-10-23T05:09:55.100Z,36.90
2017-10-23T05:12:23.347Z,21.30
2017-10-23T05:14:50.809Z,25.97
2017-10-23T05:17:18.266Z,30.03
2017-10-23T05:19:45.735Z,36.03
2017-10-23T05:22:13.185Z,31.83
2017-10-23T05:24:40.654Z,38.00
2017-10-23T05:27:08.883Z,26.50
2017-10-23T05:29:37.107Z,34.33
2017-10-23T05:32:05.348Z,29.03
2017-10-23T05:34:32.810Z,41.90
2017-10-23T05:37:00.266Z,20.00
2017-10-23T05:39:27.739Z,30.13
2017-10-23T05:41:55.185Z,25.10
2017-10-23T05:44:22.765Z,26.53
2017-10-23T05:46:50.210Z,26.07
2017-10-23T05:49:17.678Z,31.80
2017-10-23T05:51:45.125Z,28.17
2017-10-23T05:54:12.598Z,24.57
2017-10-23T05:56:40.038Z,33.00
2017-10-23T05:59:07.495Z,19.10
2017-10-23T06:01:34.950Z,25.20
2017-10-23T06:04:03.200Z,28.07
2017-10-23T06:06:30.654Z,34.13
2017-10-23T06:08:58.111Z,24.03
2017-10-23T06:11:25.566Z,26.87
2017-10-23T06:13:53.030Z,21.13
2017-10-23T06:16:20.488Z,26.50
2017-10-23T06:18:47.967Z,24.90
2017-10-23T06:21:15.434Z,27.03
2017-10-23T06:23:43.651Z,21.57
2017-10-23T06:26:11.113Z,23.00
2017-10-23T06:28:38.616Z,22.07
2017-10-23T06:31:06.838Z,18.07
2017-10-23T06:33:34.290Z,20.67
2017-10-23T06:36:02.516Z,26.27
2017-10-23T06:38:29.973Z,25.83
2017-10-23T06:40:57.463Z,24.87
2017-10-23T06:43:25.684Z,24.63
2017-10-23T06:45:53.178Z,36.03
2017-10-23T06:48:20.634Z,24.03
2017-10-23T06:50:48.106Z,23.00
2017-10-23T06:53:15.555Z,26.40
2017-10-23T06:55:43.022Z,18.27
2017-10-23T06:58:10.483Z,21.17
2017-10-23T07:00:37.924Z,18.60
2017-10-23T07:03:05.386Z,23.70
2017-10-23T07:05:32.847Z,22.77
2017-10-23T07:08:00.311Z,19.20
2017-10-23T07:10:28.547Z,23.60
2017-10-23T07:12:56.020Z,20.00
2017-10-23T07:15:23.466Z,18.93
2017-10-23T07:17:50.926Z,17.33
2017-10-23T07:20:18.390Z,25.57
2017-10-23T07:22:45.849Z,24.60
2017-10-23T07:25:14.076Z,22.53
2017-10-23T07:27:41.547Z,21.77
2017-10-23T07:30:09.032Z,24.10
2017-10-23T07:32:36.520Z,23.90
2017-10-23T07:35:03.978Z,28.47
2017-10-23T07:37:31.440Z,36.50
2017-10-23T07:39:59.689Z,30.73
2017-10-23T07:42:27.192Z,27.83
2017-10-23T07:44:55.406Z,30.03
2017-10-23T07:47:22.876Z,27.47
2017-10-23T07:49:50.326Z,24.70
2017-10-23T07:52:17.838Z,35.37
2017-10-23T07:54:45.299Z,34.50
2017-10-23T07:57:12.757Z,23.57
2017-10-23T07:59:40.520Z,31.07
2017-10-23T08:02:07.979Z,26.27
2017-10-23T08:04:36.191Z,23.37
2017-10-23T08:07:03.658Z,22.53
2017-10-23T08:09:31.106Z,23.70
2017-10-23T08:11:58.551Z,21.13
2017-10-23T08:14:26.010Z,17.33
2017-10-23T08:16:53.474Z,16.07
2017-10-23T08:19:21.724Z,20.40
2017-10-23T08:21:49.190Z,25.60
2017-10-23T08:24:17.410Z,18.63
2017-10-23T08:26:44.889Z,19.23
2017-10-23T08:29:12.345Z,14.27
2017-10-23T08:31:40.565Z,17.03
2017-10-23T08:34:09.190Z,12.93
2017-10-23T08:36:37.462Z,21.90
2017-10-23T08:39:05.690Z,13.30
2017-10-23T08:41:33.263Z,19.40
2017-10-23T08:44:00.730Z,18.53
2017-10-23T08:46:28.178Z,18.27
2017-10-23T08:48:55.659Z,19.00
2017-10-23T08:51:23.103Z,26.90
2017-10-23T08:53:50.567Z,20.47
2017-10-23T08:56:18.038Z,15.60
2017-10-23T08:58:45.521Z,16.83
2017-10-23T09:01:13.743Z,20.47
2017-10-23T09:03:41.227Z,13.50
2017-10-23T09:06:08.675Z,11.87
2017-10-23T09:08:36.114Z,23.23
2017-10-23T09:11:04.341Z,17.97
2017-10-23T09:13:32.554Z,10.90
2017-10-23T09:16:00.031Z,20.97
2017-10-23T09:18:27.481Z,13.83
2017-10-23T09:20:54.958Z,15.23
2017-10-23T09:23:22.410Z,11.33
2017-10-23T09:25:49.872Z,15.27
2017-10-23T09:28:17.316Z,21.07
2017-10-23T09:30:45.544Z,12.30
2017-10-23T09:33:13.763Z,13.40
2017-10-23T09:35:41.222Z,24.20
2017-10-23T09:38:08.675Z,14.43
2017-10-23T09:40:36.143Z,15.07
2017-10-23T09:43:03.596Z,10.67
2017-10-23T09:45:31.059Z,18.20
2017-10-23T09:47:58.510Z,12.00
2017-10-23T09:50:25.970Z,15.23
2017-10-23T09:52:53.414Z,11.50
2017-10-23T09:55:20.875Z,10.27
2017-10-23T09:57:48.331Z,9.57
2017-10-23T10:00:15.790Z,10.73
2017-10-23T10:02:44.011Z,8.73
2017-10-23T10:05:11.475Z,10.63
2017-10-23T10:07:38.926Z,12.70
2017-10-23T10:10:07.162Z,9.90
2017-10-23T10:12:35.384Z,12.77
2017-10-23T10:15:02.842Z,9.23
2017-10-23T10:17:31.064Z,11.47
2017-10-23T10:19:59.319Z,6.90
2017-10-23T10:22:27.571Z,15.07
2017-10-23T10:24:55.775Z,5.67
2017-10-23T10:27:23.226Z,6.33
2017-10-23T10:29:50.681Z,7.07
2017-10-23T10:32:18.133Z,6.30
2017-10-23T10:34:45.628Z,9.67
2017-10-23T10:37:13.074Z,12.93
2017-10-23T10:39:40.534Z,9.30
2017-10-23T10:42:08.014Z,5.97
2017-10-23T10:44:35.476Z,7.23
2017-10-23T10:47:02.941Z,7.10
2017-10-23T10:49:30.426Z,6.60
2017-10-23T10:51:58.641Z,4.80
2017-10-23T10:54:26.095Z,8.47
2017-10-23T10:56:53.570Z,7.03
2017-10-23T10:59:21.033Z,5.17
2017-10-23T11:01:48.481Z,6.93
2017-10-23T11:04:15.946Z,4.67
2017-10-23T11:06:43.405Z,5.70
2017-10-23T11:09:10.863Z,9.60
2017-10-23T11:11:38.314Z,10.83
2017-10-23T11:14:06.578Z,8.83
2017-10-23T11:16:34.026Z,8.07
2017-10-23T11:19:01.491Z,9.10
2017-10-23T11:21:28.947Z,4.70
2017-10-23T11:23:57.168Z,3.37
2017-10-23T11:26:24.622Z,6.80
2017-10-23T11:28:52.076Z,5.20
2017-10-23T11:31:19.513Z,5.37
2017-10-23T11:33:46.982Z,7.40
2017-10-23T11:36:14.431Z,6.33
2017-10-23T11:38:41.890Z,4.07
2017-10-23T11:41:09.352Z,11.80
2017-10-23T11:43:36.822Z,5.33
2017-10-23T11:46:04.270Z,5.90
2017-10-23T11:48:31.740Z,9.83
2017-10-23T11:50:59.191Z,8.00
2017-10-23T11:53:26.654Z,12.27
2017-10-23T11:55:54.116Z,7.33
2017-10-23T11:58:21.559Z,5.37
2017-10-23T12:00:49.018Z,4.37
2017-10-23T12:03:16.490Z,4.70
2017-10-23T12:05:44.718Z,8.70
2017-10-23T12:08:12.164Z,3.90
2017-10-23T12:10:39.627Z,4.57
2017-10-23T12:13:07.072Z,4.93
2017-10-23T12:15:35.298Z,4.90
2017-10-23T12:18:03.501Z,7.67
2017-10-23T12:20:31.733Z,9.53
2017-10-23T12:22:59.934Z,15.03
2017-10-23T12:25:27.402Z,9.50
2017-10-23T12:27:55.610Z,9.20
2017-10-23T12:30:23.830Z,6.17
2017-10-23T12:32:51.284Z,8.80
2017-10-23T12:35:18.743Z,5.50
2017-10-23T12:37:46.192Z,4.60
2017-10-23T12:40:13.666Z,4.37
2017-10-23T12:42:41.117Z,7.50
2017-10-23T12:45:08.559Z,8.10
2017-10-23T12:47:36.064Z,10.60
2017-10-23T12:50:04.282Z,7.57
2017-10-23T12:52:31.758Z,6.47
2017-10-23T12:54:59.207Z,4.87
2017-10-23T12:57:26.663Z,7.07
2017-10-23T12:59:54.122Z,3.17
2017-10-23T13:02:21.575Z,4.10
2017-10-23T13:04:49.018Z,3.10
2017-10-23T13:07:16.485Z,1.97
2017-10-23T13:09:44.890Z,4.90
2017-10-23T13:12:12.346Z,5.43
2017-10-23T13:14:39.799Z,3.17
2017-10-23T13:17:08.049Z,4.17
2017-10-23T13:19:35.487Z,5.80
2017-10-23T13:22:03.714Z,2.50
2017-10-23T13:24:31.157Z,2.13
2017-10-23T13:26:58.614Z,5.10
2017-10-23T13:29:26.076Z,3.17
2017-10-23T13:31:53.529Z,4.33
2017-10-23T13:34:20.980Z,2.80
2017-10-23T13:36:48.430Z,2.30
2017-10-23T13:39:15.882Z,3.77
2017-10-23T13:41:44.117Z,2.63
2017-10-23T13:44:11.575Z,3.03
2017-10-23T13:46:39.030Z,4.10
2017-10-23T13:49:07.242Z,2.27
2017-10-23T13:51:34.714Z,3.60
2017-10-23T13:54:02.166Z,3.03
2017-10-23T13:56:29.615Z,2.60
2017-10-23T13:58:57.071Z,4.47
2017-10-23T14:01:24.532Z,4.40
2017-10-23T14:03:52.743Z,2.93
2017-10-23T14:06:20.978Z,16.40
2017-10-23T14:08:48.437Z,11.07
2017-10-23T14:11:15.884Z,9.10
2017-10-23T14:13:44.104Z,3.80
2017-10-23T14:16:11.557Z,3.83
2017-10-23T14:18:39.017Z,3.83
2017-10-23T14:21:06.485Z,3.53
2017-10-23T14:23:34.707Z,5.83
2017-10-23T14:26:02.172Z,3.43
2017-10-23T14:28:29.631Z,6.47
2017-10-23T14:30:57.074Z,7.17
2017-10-23T14:33:24.530Z,4.40
2017-10-23T14:35:52.746Z,3.53
2017-10-23T14:38:20.207Z,5.47
2017-10-23T14:40:47.648Z,5.10
2017-10-23T14:43:15.098Z,3.47
2017-10-23T14:45:42.550Z,4.87
2017-10-23T14:48:10.035Z,5.90
2017-10-23T14:50:37.525Z,3.63
2017-10-23T14:53:04.978Z,8.53
2017-10-23T14:55:33.207Z,5.43
2017-10-23T14:58:00.663Z,3.83
2017-10-23T15:00:28.118Z,4.60
2017-10-23T15:02:55.574Z,8.57
2017-10-23T15:05:23.045Z,6.90
2017-10-23T15:07:50.487Z,3.63
2017-10-23T15:10:17.947Z,21.60
2017-10-23T15:12:45.407Z,8.27
2017-10-23T15:15:13.630Z,9.10
2017-10-23T15:17:41.077Z,6.70
2017-10-23T15:20:09.303Z,6.03
2017-10-23T15:22:36.755Z,5.07
2017-10-23T15:25:04.214Z,3.37
2017-10-23T15:27:31.661Z,7.00
2017-10-23T15:29:59.882Z,4.97
2017-10-23T15:32:27.338Z,3.30
2017-10-23T15:34:54.802Z,3.67
2017-10-23T15:37:22.255Z,1.90
2017-10-23T15:39:49.712Z,2.70
2017-10-23T15:42:17.923Z,2.20
2017-10-23T15:44:45.394Z,5.30
2017-10-23T15:47:12.841Z,2.80
2017-10-23T15:49:40.310Z,2.33
2017-10-23T15:52:07.760Z,3.83
2017-10-23T15:54:35.989Z,3.40
2017-10-23T15:57:03.451Z,2.40
2017-10-23T15:59:31.670Z,3.30
2017-10-23T16:01:59.124Z,4.50
2017-10-23T16:04:26.566Z,1.97
2017-10-23T16:06:54.790Z,9.07
2017-10-23T16:09:22.237Z,7.93
2017-10-23T16:11:49.690Z,7.07
2017-10-23T16:14:17.143Z,3.90
2017-10-23T16:16:44.607Z,7.63
2017-10-23T16:19:12.060Z,3.57
2017-10-23T16:21:39.530Z,6.00
2017-10-23T16:24:07.002Z,7.77
2017-10-23T16:26:35.214Z,4.03
2017-10-23T16:29:02.659Z,7.27
2017-10-23T16:31:30.886Z,5.03
2017-10-23T16:33:58.339Z,11.40
2017-10-23T16:36:25.844Z,5.60
2017-10-23T16:38:53.280Z,4.50
2017-10-23T16:41:20.734Z,3.10
2017-10-23T16:43:48.199Z,4.37
2017-10-23T16:46:15.694Z,6.30
2017-10-23T16:48:43.143Z,5.70
2017-10-23T16:51:10.591Z,4.83
2017-10-23T16:53:38.814Z,10.00
2017-10-23T16:56:07.062Z,11.67
2017-10-23T16:58:35.289Z,10.13
2017-10-23T17:01:02.780Z,47.27
2017-10-23T17:03:31.011Z,10.93
2017-10-23T17:05:58.453Z,12.40
2017-10-23T17:08:25.909Z,17.77
2017-10-23T17:10:53.366Z,12.43
2017-10-23T17:13:20.821Z,41.77
2017-10-23T17:15:48.282Z,15.93
2017-10-23T17:18:16.497Z,14.30
2017-10-23T17:20:44.154Z,19.13
2017-10-23T17:23:11.614Z,18.60
2017-10-23T17:25:39.088Z,17.40
2017-10-23T17:28:06.547Z,17.37
2017-10-23T17:30:34.770Z,15.43
2017-10-23T17:33:02.250Z,15.40
2017-10-23T17:35:29.693Z,14.27
2017-10-23T17:37:57.159Z,15.43
2017-10-23T17:40:24.610Z,12.80
2017-10-23T17:42:52.070Z,18.87
2017-10-23T17:45:19.535Z,13.47
2017-10-23T17:47:46.994Z,18.93
2017-10-23T17:50:14.446Z,13.40
2017-10-23T17:52:41.906Z,41.17
2017-10-23T17:55:09.374Z,14.27
2017-10-23T17:57:36.825Z,12.97
2017-10-23T18:00:04.277Z,12.07
2017-10-23T18:02:31.723Z,14.40
2017-10-23T18:04:59.186Z,9.90
2017-10-23T18:07:26.629Z,11.47
2017-10-23T18:09:54.110Z,12.90
2017-10-23T18:12:21.557Z,17.20
2017-10-23T18:14:49.054Z,10.60
2017-10-23T18:17:17.268Z,17.03
2017-10-23T18:19:44.737Z,10.07
2017-10-23T18:22:12.186Z,14.87
2017-10-23T18:24:39.645Z,10.40
2017-10-23T18:27:07.866Z,11.30
2017-10-23T18:29:35.322Z,11.10
2017-10-23T18:32:02.766Z,6.70
2017-10-23T18:34:30.242Z,10.90
2017-10-23T18:36:57.698Z,7.93
2017-10-23T18:39:25.154Z,8.60
2017-10-23T18:41:52.609Z,13.90
2017-10-23T18:44:20.083Z,6.73
2017-10-23T18:46:48.307Z,4.40
2017-10-23T18:49:15.749Z,6.13
2017-10-23T18:51:43.209Z,14.97
2017-10-23T18:54:10.662Z,12.20
2017-10-23T18:56:38.119Z,14.17
2017-10-23T18:59:05.578Z,14.90
2017-10-23T19:01:33.076Z,9.50
2017-10-23T19:04:00.530Z,8.13
2017-10-23T19:06:27.993Z,10.13
2017-10-23T19:08:55.453Z,12.30
2017-10-23T19:11:22.914Z,10.53
2017-10-23T19:13:50.361Z,4.83
2017-10-23T19:16:18.575Z,7.83
2017-10-23T19:18:46.036Z,19.93
2017-10-23T19:21:14.250Z,8.43
2017-10-23T19:23:41.705Z,5.80
2017-10-23T19:26:09.285Z,7.33
2017-10-23T19:28:36.746Z,8.93
2017-10-23T19:31:04.186Z,17.10
2017-10-23T19:33:32.420Z,17.07
2017-10-23T19:36:00.635Z,18.03
2017-10-23T19:38:28.086Z,14.80
2017-10-23T19:40:55.546Z,14.53
2017-10-23T19:43:23.002Z,14.10
2017-10-23T19:45:50.464Z,10.83
2017-10-23T19:48:17.961Z,8.23
2017-10-23T19:50:46.186Z,11.30
2017-10-23T19:53:13.655Z,13.00
2017-10-23T19:55:41.098Z,11.43
2017-10-23T19:58:08.550Z,10.77
2017-10-23T20:00:36.001Z,8.67
2017-10-23T20:03:03.462Z,26.17
2017-10-23T20:05:30.923Z,15.33
2017-10-23T20:07:58.375Z,20.63
2017-10-23T20:10:25.835Z,16.00
2017-10-23T20:12:53.287Z,13.90
2017-10-23T20:15:20.746Z,11.40
2017-10-23T20:17:48.194Z,16.00
2017-10-23T20:20:16.401Z,15.00
2017-10-23T20:22:43.857Z,11.27
2017-10-23T20:25:11.306Z,11.43
2017-10-23T20:27:38.774Z,10.90
2017-10-23T20:30:06.259Z,12.80
2017-10-23T20:32:33.707Z,13.10
2017-10-23T20:35:01.954Z,13.33
2017-10-23T20:37:29.402Z,16.03
2017-10-23T20:39:56.858Z,23.03
2017-10-23T20:42:24.330Z,30.10
2017-10-23T20:44:51.790Z,27.47
2017-10-23T20:47:19.254Z,27.97
2017-10-23T20:49:46.717Z,29.20
2017-10-23T20:52:14.179Z,23.00
2017-10-23T20:54:42.423Z,20.83
2017-10-23T20:57:09.900Z,24.27
2017-10-23T20:59:37.353Z,35.93
2017-10-23T21:02:04.811Z,21.03
2017-10-23T21:04:32.262Z,19.03
2017-10-23T21:06:59.746Z,23.73
2017-10-23T21:09:27.198Z,27.40
2017-10-23T21:11:54.682Z,24.47
2017-10-23T21:14:22.138Z,22.17
2017-10-23T21:16:49.594Z,22.60
2017-10-23T21:19:17.050Z,23.33
2017-10-23T21:21:44.511Z,19.70
2017-10-23T21:24:11.963Z,17.43
2017-10-23T21:26:40.193Z,29.40
2017-10-23T21:29:07.650Z,19.20
2017-10-23T21:31:35.110Z,14.90
2017-10-23T21:34:02.567Z,29.63
2017-10-23T21:36:30.015Z,18.30
2017-10-23T21:38:57.466Z,17.90
2017-10-23T21:41:24.919Z,18.17
2017-10-23T21:43:52.418Z,21.70
2017-10-23T21:46:31.577Z,18.13
2017-10-23T21:48:59.046Z,20.10
2017-10-23T21:51:26.494Z,19.23
2017-10-23T21:53:54.724Z,14.40
2017-10-23T21:56:22.176Z,12.60
2017-10-23T21:58:49.639Z,14.90
2017-10-23T22:01:17.106Z,14.37
2017-10-23T22:03:44.568Z,18.47
2017-10-23T22:06:12.011Z,14.60
2017-10-23T22:08:39.472Z,14.17
2017-10-23T22:11:06.932Z,16.27
2017-10-23T22:13:34.398Z,15.20
2017-10-23T22:16:01.866Z,13.97
2017-10-23T22:18:30.121Z,11.87
2017-10-23T22:20:57.606Z,17.20
2017-10-23T22:23:26.576Z,13.30
2017-10-23T22:25:54.793Z,20.13
2017-10-23T22:28:23.013Z,11.07
2017-10-23T22:30:51.241Z,10.53
2017-10-23T22:33:19.483Z,15.30
2017-10-23T22:35:46.930Z,13.37
2017-10-23T22:38:14.429Z,17.80
2017-10-23T22:40:41.886Z,11.93
2017-10-23T22:43:10.109Z,12.37
2017-10-23T22:45:37.572Z,17.30
2017-10-23T22:48:05.027Z,14.70
2017-10-23T22:50:32.492Z,11.30
2017-10-23T22:52:59.934Z,10.00
2017-10-23T22:55:27.394Z,13.07
2017-10-23T22:57:54.855Z,15.53
2017-10-23T23:00:22.310Z,11.00
2017-10-23T23:02:50.533Z,15.97
2017-10-23T23:05:18.757Z,14.07
2017-10-23T23:07:46.212Z,13.07
2017-10-23T23:10:13.686Z,21.53
2017-10-23T23:12:41.939Z,15.07
2017-10-23T23:15:09.393Z,19.10
2017-10-23T23:17:36.845Z,16.03
2017-10-23T23:20:04.316Z,14.50
2017-10-23T23:22:32.534Z,11.20
2017-10-23T23:24:59.994Z,12.47
2017-10-23T23:27:27.484Z,16.53
2017-10-23T23:29:55.710Z,13.40
2017-10-23T23:32:23.159Z,14.50
2017-10-23T23:34:50.615Z,14.33
2017-10-23T23:37:18.063Z,9.00
2017-10-23T23:39:45.524Z,22.47
2017-10-23T23:42:12.982Z,12.27
2017-10-23T23:44:40.450Z,7.03
2017-10-23T23:47:07.905Z,12.00
2017-10-23T23:49:35.345Z,10.03
2017-10-23T23:52:02.818Z,13.33
2017-10-23T23:54:30.274Z,9.60
2017-10-23T23:56:57.730Z,10.17
2017-10-23T23:59:25.174Z,7.83
